Terminal Aerodrome Forecast
Issued by NWS

Home | Current Version | Previous Version | Text Only | Print | Product List | Glossary On
Versions: 1 2 3 4 5 6 7 8 9 10 11 12 13 14 15 16 17
362
FTUS41 KBGM 131316 AAA
TAFITH
TAF AMD
KITH 131316Z 1313/1412 31015G25KT P6SM -SHSN OVC035
      TEMPO 1313/1315 1SM -SHSN BLSN OVC025
     FM131800 31015G25KT P6SM -SHSN BKN035
     FM140300 30012KT P6SM -SHSN BKN050=

USA.gov is the U.S. government's official web portal to all federal, state and local government web resources and services.